Time;durP1;ratioP1;P1;durP2;ratioP2;P2;SDS_P1;SDS_P2;PMS_P1;PMS_P2;Temp;Humidity;BMP_temperature;BMP_pressure;BME280_temperature;BME280_humidity;BME280_pressure;Samples;Min_cycle;Max_cycle;Signal;HPM_P1;HPM_P2
2021/07/23 00:01:11;;;;;;;13.37;10.90;;;17.80;99.90;;;;;;4878663;29;20839;-76
2021/07/23 00:03:39;;;;;;;16.93;11.23;;;17.70;99.90;;;;;;4886204;29;20474;-78
2021/07/23 00:06:25;;;;;;;15.23;11.27;;;17.70;99.90;;;;;;4880429;29;20910;-76
2021/07/23 00:08:52;;;;;;;17.77;11.50;;;17.70;99.90;;;;;;4879556;29;20518;-77
2021/07/23 00:11:19;;;;;;;17.73;10.87;;;17.70;99.90;;;;;;4880668;29;20455;-77
2021/07/23 00:13:47;;;;;;;15.60;10.00;;;17.70;99.90;;;;;;4879185;29;20526;-79
2021/07/23 00:16:14;;;;;;;14.00;10.60;;;17.60;99.90;;;;;;4879770;29;20558;-78
2021/07/23 00:18:41;;;;;;;14.00;9.80;;;17.60;99.90;;;;;;4880208;29;21036;-79
2021/07/23 00:21:08;;;;;;;12.47;10.10;;;17.60;99.90;;;;;;4879483;29;20483;-76
2021/07/23 00:23:35;;;;;;;16.83;9.43;;;17.60;99.90;;;;;;4880093;29;20488;-77
2021/07/23 00:26:08;;;;;;;16.33;11.17;;;17.50;99.90;;;;;;4891068;29;20566;-78
2021/07/23 00:28:35;;;;;;;15.20;9.97;;;17.50;99.90;;;;;;4894296;29;20618;-81
2021/07/23 00:31:02;;;;;;;16.53;9.97;;;17.50;99.90;;;;;;4878140;29;20526;-78
2021/07/23 00:33:28;;;;;;;13.83;9.50;;;17.40;99.90;;;;;;4877616;29;21020;-79
2021/07/23 00:35:59;;;;;;;14.43;9.40;;;17.40;99.90;;;;;;4879133;29;20717;-80
2021/07/23 00:38:26;;;;;;;13.40;9.47;;;17.40;99.90;;;;;;4877920;29;20454;-77
2021/07/23 00:40:52;;;;;;;14.70;9.10;;;17.40;99.90;;;;;;4878889;29;20512;-77
2021/07/23 00:43:20;;;;;;;14.33;8.33;;;17.40;99.90;;;;;;4878117;29;20465;-79
2021/07/23 00:45:47;;;;;;;19.77;10.23;;;17.40;99.90;;;;;;4892894;29;20912;-78
2021/07/23 00:48:15;;;;;;;14.80;9.30;;;17.40;99.90;;;;;;4882644;29;20455;-79
2021/07/23 00:50:43;;;;;;;14.80;10.13;;;17.30;99.90;;;;;;4891311;29;20544;-79
2021/07/23 00:53:10;;;;;;;12.90;10.27;;;17.40;99.90;;;;;;4897518;29;20482;-77
2021/07/23 00:55:40;;;;;;;15.27;9.63;;;17.30;99.90;;;;;;4876627;29;20475;-77
2021/07/23 00:58:08;;;;;;;13.57;9.50;;;17.20;99.90;;;;;;4877594;29;20432;-76
2021/07/23 01:00:39;;;;;;;11.97;9.57;;;17.30;99.90;;;;;;4878259;29;20542;-77
2021/07/23 01:03:07;;;;;;;16.97;10.70;;;17.20;99.90;;;;;;4862733;29;20463;-79
2021/07/23 01:05:36;;;;;;;13.87;8.80;;;17.10;99.90;;;;;;4878426;29;20471;-76
2021/07/23 01:08:05;;;;;;;13.20;9.63;;;17.20;99.90;;;;;;4877256;29;20471;-77
2021/07/23 01:10:39;;;;;;;15.00;9.90;;;17.20;99.90;;;;;;4862607;29;21009;-76
2021/07/23 01:13:12;;;;;;;15.57;9.90;;;17.10;99.90;;;;;;4877388;29;20435;-78
2021/07/23 01:15:42;;;;;;;12.73;8.60;;;17.00;99.90;;;;;;4878458;29;20483;-78
2021/07/23 01:18:10;;;;;;;12.50;9.70;;;16.90;99.90;;;;;;4877501;29;20467;-77
2021/07/23 01:20:39;;;;;;;12.07;9.83;;;16.90;99.90;;;;;;4877285;29;21001;-78
2021/07/23 01:23:08;;;;;;;13.40;10.10;;;16.90;99.90;;;;;;4877561;29;20527;-77
2021/07/23 01:25:36;;;;;;;15.77;10.60;;;16.80;99.90;;;;;;4877821;29;20484;-76
2021/07/23 01:28:04;;;;;;;13.53;8.80;;;16.80;99.90;;;;;;4878309;29;20902;-77
2021/07/23 01:30:36;;;;;;;16.97;10.00;;;16.80;99.90;;;;;;4878079;29;20482;-77
2021/07/23 01:33:32;;;;;;;11.07;9.37;;;16.80;99.90;;;;;;4889615;29;20472;-78
2021/07/23 01:35:59;;;;;;;11.20;8.83;;;16.70;99.90;;;;;;4877983;29;21032;-78
2021/07/23 01:38:32;;;;;;;16.40;9.40;;;16.70;99.90;;;;;;4877212;29;20435;-79
2021/07/23 01:40:59;;;;;;;18.60;9.93;;;16.70;99.90;;;;;;4891192;29;20479;-79
2021/07/23 01:43:27;;;;;;;11.60;9.83;;;16.60;99.90;;;;;;4878729;29;20980;-77
2021/07/23 01:45:58;;;;;;;17.57;10.90;;;16.60;99.90;;;;;;4862081;29;20874;-78
2021/07/23 01:48:54;;;;;;;17.63;9.20;;;16.60;99.90;;;;;;4884240;29;20479;-77
2021/07/23 01:51:27;;;;;;;14.70;10.63;;;16.50;99.90;;;;;;4876658;29;20507;-78
2021/07/23 01:53:54;;;;;;;14.00;9.27;;;16.50;99.90;;;;;;4876862;29;20460;-77
2021/07/23 01:56:24;;;;;;;15.60;10.17;;;16.50;99.90;;;;;;4877448;29;20528;-75
2021/07/23 01:58:55;;;;;;;14.40;9.90;;;16.50;99.90;;;;;;4876428;29;20440;-80
2021/07/23 02:01:24;;;;;;;15.37;10.03;;;16.50;99.90;;;;;;4877893;29;20505;-77
2021/07/23 02:04:07;;;;;;;13.20;10.00;;;16.50;99.90;;;;;;4876764;29;20846;-79
2021/07/23 02:06:34;;;;;;;15.63;10.27;;;16.50;99.90;;;;;;4876920;29;20432;-78
2021/07/23 02:09:03;;;;;;;16.67;10.43;;;16.40;99.90;;;;;;4875539;29;20443;-77
2021/07/23 02:11:37;;;;;;;13.93;9.80;;;16.40;99.90;;;;;;4892354;29;20760;-77
2021/07/23 02:14:07;;;;;;;15.00;9.60;;;16.40;99.90;;;;;;4876169;29;20468;-79
2021/07/23 02:16:35;;;;;;;17.60;11.10;;;16.30;99.90;;;;;;4877933;29;20483;-77
2021/07/23 02:19:03;;;;;;;14.10;9.60;;;16.30;99.90;;;;;;4875729;29;20453;-79
2021/07/23 02:21:48;;;;;;;12.20;9.60;;;16.30;99.90;;;;;;4876888;29;21259;-77
2021/07/23 02:24:18;;;;;;;13.30;9.40;;;16.30;99.90;;;;;;4877001;29;20845;-77
2021/07/23 02:26:45;;;;;;;17.37;9.90;;;16.30;99.90;;;;;;4877849;29;20479;-78
2021/07/23 02:29:12;;;;;;;13.43;9.30;;;16.20;99.90;;;;;;4877033;29;20486;-75
2021/07/23 02:31:45;;;;;;;10.40;8.80;;;16.20;99.90;;;;;;4877885;29;20790;-77
2021/07/23 02:34:20;;;;;;;10.30;8.53;;;16.20;99.90;;;;;;4875896;28;20829;-77
2021/07/23 02:36:47;;;;;;;16.23;10.37;;;16.20;99.90;;;;;;4892114;29;20442;-77
2021/07/23 02:39:18;;;;;;;14.60;10.00;;;16.10;99.90;;;;;;4875482;29;20519;-77
2021/07/23 02:41:53;;;;;;;12.33;8.90;;;16.10;99.90;;;;;;4876398;29;20482;-77
2021/07/23 02:44:21;;;;;;;12.83;10.10;;;16.10;99.90;;;;;;4877069;29;20661;-77
2021/07/23 02:46:48;;;;;;;15.27;10.83;;;16.00;99.90;;;;;;4876431;29;20472;-76
2021/07/23 02:49:17;;;;;;;17.33;11.07;;;16.00;99.90;;;;;;4878683;29;20470;-77
2021/07/23 02:51:47;;;;;;;18.03;10.37;;;16.00;99.90;;;;;;4896232;29;20438;-77
2021/07/23 02:54:14;;;;;;;15.00;9.97;;;16.00;99.90;;;;;;4892463;28;20474;-77
2021/07/23 02:56:41;;;;;;;13.73;10.37;;;16.00;99.90;;;;;;4876240;29;20522;-78
2021/07/23 02:59:08;;;;;;;14.70;10.37;;;16.00;99.90;;;;;;4875625;29;20442;-77
2021/07/23 03:01:37;;;;;;;14.67;9.97;;;16.00;99.90;;;;;;4877016;29;20475;-77
2021/07/23 03:04:07;;;;;;;17.00;11.10;;;15.90;99.90;;;;;;4895989;28;20565;-77
2021/07/23 03:06:38;;;;;;;12.40;9.43;;;15.90;99.90;;;;;;4898133;29;21000;-79
2021/07/23 03:09:07;;;;;;;16.70;11.47;;;15.90;99.90;;;;;;4894072;29;20486;-77
2021/07/23 03:11:34;;;;;;;14.97;10.80;;;15.80;99.90;;;;;;4880831;29;20431;-77
2021/07/23 03:14:06;;;;;;;16.70;10.70;;;15.80;99.90;;;;;;4880289;29;20443;-78
2021/07/23 03:16:45;;;;;;;17.50;11.83;;;15.80;99.90;;;;;;4879315;29;20443;-76
2021/07/23 03:19:12;;;;;;;14.80;10.97;;;15.80;99.90;;;;;;4879836;29;20463;-77
2021/07/23 03:21:39;;;;;;;15.03;10.17;;;15.80;99.90;;;;;;4878829;29;20471;-78
2021/07/23 03:24:09;;;;;;;15.03;10.17;;;15.70;99.90;;;;;;4879982;29;20451;-77
2021/07/23 03:26:37;;;;;;;13.70;9.17;;;15.70;99.90;;;;;;4879368;29;20930;-77
2021/07/23 03:29:08;;;;;;;14.90;10.73;;;15.70;99.90;;;;;;4889719;29;20517;-77
2021/07/23 03:31:39;;;;;;;12.80;10.03;;;15.70;99.90;;;;;;4899095;29;20829;-77
2021/07/23 03:34:17;;;;;;;12.87;9.10;;;15.70;99.90;;;;;;4896874;29;20470;-75
2021/07/23 03:36:59;;;;;;;14.57;10.67;;;15.70;99.90;;;;;;4897996;29;20434;-77
2021/07/23 03:39:46;;;;;;;15.40;10.20;;;15.70;99.90;;;;;;4892557;28;20591;-75
2021/07/23 03:42:17;;;;;;;15.47;10.57;;;15.60;99.90;;;;;;4880666;29;20435;-77
2021/07/23 03:44:58;;;;;;;14.67;9.60;;;15.60;99.90;;;;;;4878555;29;20993;-76
2021/07/23 03:47:26;;;;;;;18.23;9.57;;;15.60;99.90;;;;;;4886407;29;20961;-77
2021/07/23 03:49:56;;;;;;;18.20;10.00;;;15.60;99.90;;;;;;4878371;29;20484;-78
2021/07/23 03:52:24;;;;;;;19.60;10.10;;;15.60;99.90;;;;;;4894824;29;20795;-77
2021/07/23 03:55:12;;;;;;;13.60;10.80;;;15.50;99.90;;;;;;4887694;29;20487;-77
2021/07/23 03:57:45;;;;;;;13.27;10.10;;;15.50;99.90;;;;;;4897351;29;20921;-77
2021/07/23 04:00:13;;;;;;;17.23;10.50;;;15.50;99.90;;;;;;4896932;29;20501;-80
2021/07/23 04:02:56;;;;;;;15.23;11.80;;;15.50;99.90;;;;;;4895803;29;20542;-77
2021/07/23 04:05:24;;;;;;;14.60;10.23;;;15.50;99.90;;;;;;4878345;29;20474;-80
2021/07/23 04:07:54;;;;;;;18.70;12.13;;;15.40;99.90;;;;;;4863382;29;20450;-78
2021/07/23 04:10:21;;;;;;;14.90;10.57;;;15.50;99.90;;;;;;4879430;29;20511;-78
2021/07/23 04:12:48;;;;;;;15.10;10.53;;;15.50;99.90;;;;;;4878780;29;21001;-79
2021/07/23 04:15:17;;;;;;;14.10;10.90;;;15.50;99.90;;;;;;4878823;29;20574;-77
2021/07/23 04:18:06;;;;;;;15.43;11.53;;;15.50;99.90;;;;;;4891290;29;20436;-76
2021/07/23 04:20:43;;;;;;;16.63;11.90;;;15.50;99.90;;;;;;4878454;29;20865;-76
2021/07/23 04:23:11;;;;;;;17.13;11.80;;;15.50;99.90;;;;;;4883638;29;20446;-77
2021/07/23 04:25:38;;;;;;;13.13;10.10;;;15.50;99.90;;;;;;4885424;28;20779;-78
2021/07/23 04:28:07;;;;;;;12.00;9.00;;;15.70;99.90;;;;;;4877983;29;20491;-75
2021/07/23 04:30:42;;;;;;;14.53;10.33;;;15.60;99.90;;;;;;4877777;29;20582;-77
2021/07/23 04:33:28;;;;;;;14.03;9.53;;;15.60;99.90;;;;;;4879739;29;20442;-76
2021/07/23 04:36:28;;;;;;;12.53;9.17;;;15.70;99.90;;;;;;4879287;29;20854;-76
2021/07/23 04:39:03;;;;;;;12.60;10.17;;;15.70;99.90;;;;;;4877452;29;20451;-77
2021/07/23 04:41:31;;;;;;;15.70;9.87;;;15.60;99.90;;;;;;4878065;29;20542;-77
2021/07/23 04:43:59;;;;;;;16.00;11.47;;;15.60;99.90;;;;;;4877561;29;20443;-75
2021/07/23 04:46:26;;;;;;;16.83;11.90;;;15.60;99.90;;;;;;4878380;29;20430;-77
2021/07/23 04:48:54;;;;;;;13.83;11.23;;;15.70;99.90;;;;;;4886157;29;20448;-77
2021/07/23 04:51:34;;;;;;;14.67;11.70;;;15.70;99.90;;;;;;4879251;29;20450;-76
2021/07/23 04:54:20;;;;;;;15.83;11.33;;;15.80;99.90;;;;;;4878366;29;20514;-76
2021/07/23 04:57:26;;;;;;;16.10;11.10;;;15.90;99.90;;;;;;4898126;29;20432;-77
2021/07/23 04:59:53;;;;;;;15.23;10.23;;;15.90;99.90;;;;;;4878687;29;20491;-78
2021/07/23 05:02:20;;;;;;;16.60;10.43;;;16.00;99.90;;;;;;4879087;29;20565;-77
2021/07/23 05:04:47;;;;;;;16.20;11.60;;;16.00;99.90;;;;;;4885028;29;20863;-78
2021/07/23 05:07:16;;;;;;;12.93;9.77;;;16.00;99.90;;;;;;4893062;29;20513;-75
2021/07/23 05:09:44;;;;;;;16.43;11.07;;;16.00;99.90;;;;;;4894726;29;20479;-77
2021/07/23 05:12:12;;;;;;;18.50;12.10;;;16.10;99.90;;;;;;4898535;29;20441;-79
2021/07/23 05:14:39;;;;;;;15.73;11.37;;;16.10;99.90;;;;;;4895938;29;20913;-78
2021/07/23 05:17:06;;;;;;;16.27;12.23;;;16.20;99.90;;;;;;4897775;29;20434;-77
2021/07/23 05:19:35;;;;;;;15.60;12.10;;;16.20;99.90;;;;;;4884472;29;20474;-78
2021/07/23 05:22:02;;;;;;;13.90;11.53;;;16.20;99.90;;;;;;4879033;29;20482;-78
2021/07/23 05:24:30;;;;;;;18.47;11.37;;;16.30;99.90;;;;;;4891866;29;20526;-79
2021/07/23 05:26:59;;;;;;;16.80;11.17;;;16.40;99.90;;;;;;4897498;29;20525;-77
2021/07/23 05:29:26;;;;;;;13.23;11.87;;;16.40;99.90;;;;;;4897365;28;20463;-77
2021/07/23 05:31:52;;;;;;;16.30;11.27;;;16.40;99.90;;;;;;4897520;29;20534;-77
2021/07/23 05:34:21;;;;;;;18.03;11.60;;;16.50;99.90;;;;;;4896213;29;20995;-77
2021/07/23 05:36:49;;;;;;;15.33;11.30;;;16.60;99.90;;;;;;4898322;29;20556;-78
2021/07/23 05:39:16;;;;;;;16.80;11.27;;;16.60;99.90;;;;;;4897617;29;20459;-79
2021/07/23 05:41:46;;;;;;;19.77;11.70;;;16.70;99.90;;;;;;4877059;29;20463;-77
2021/07/23 05:44:15;;;;;;;16.43;11.93;;;16.70;99.90;;;;;;4876768;29;20513;-77
2021/07/23 05:46:42;;;;;;;15.40;11.20;;;16.80;99.90;;;;;;4877095;29;21065;-77
2021/07/23 05:49:09;;;;;;;16.73;11.10;;;16.90;99.90;;;;;;4877984;29;20470;-77
2021/07/23 05:51:37;;;;;;;15.40;11.80;;;17.00;99.90;;;;;;4876941;29;20498;-79
2021/07/23 05:54:04;;;;;;;17.60;12.80;;;17.10;99.90;;;;;;4876363;29;20451;-79
2021/07/23 05:56:31;;;;;;;16.80;12.10;;;17.20;99.90;;;;;;4878422;29;20539;-78
2021/07/23 05:58:58;;;;;;;17.87;12.27;;;17.20;99.90;;;;;;4876141;29;20554;-77
2021/07/23 06:01:25;;;;;;;15.37;11.03;;;17.30;99.90;;;;;;4878049;29;20467;-78
2021/07/23 06:03:53;;;;;;;20.90;12.47;;;17.50;99.90;;;;;;4877508;29;20846;-78
2021/07/23 06:06:20;;;;;;;14.77;10.03;;;17.70;99.90;;;;;;4877020;29;20471;-78
2021/07/23 06:09:05;;;;;;;17.03;11.10;;;18.00;99.90;;;;;;4867341;29;20844;-78
2021/07/23 06:11:41;;;;;;;12.70;10.50;;;18.30;99.90;;;;;;4886691;29;20541;-79
2021/07/23 06:14:08;;;;;;;14.97;11.10;;;18.50;99.90;;;;;;4896556;28;20797;-76
2021/07/23 06:16:38;;;;;;;13.47;10.40;;;19.10;99.90;;;;;;4878326;29;20749;-80
2021/07/23 06:19:05;;;;;;;12.70;10.63;;;19.50;99.90;;;;;;4876940;29;20448;-79
2021/07/23 06:21:32;;;;;;;21.07;16.53;;;19.90;99.90;;;;;;4877149;29;20469;-78
2021/07/23 06:23:59;;;;;;;17.00;12.90;;;20.30;99.90;;;;;;4876189;29;20455;-79
2021/07/23 06:26:27;;;;;;;15.33;12.90;;;20.60;99.90;;;;;;4878565;29;20449;-79
2021/07/23 06:28:59;;;;;;;17.23;11.13;;;20.90;99.90;;;;;;4893468;28;20889;-79
2021/07/23 06:31:28;;;;;;;14.30;10.40;;;21.10;99.90;;;;;;4896914;29;20921;-79
2021/07/23 06:33:55;;;;;;;12.43;9.17;;;21.40;99.90;;;;;;4891624;29;20510;-77
2021/07/23 06:36:23;;;;;;;12.30;9.13;;;21.50;97.60;;;;;;4877903;29;20467;-79
2021/07/23 06:38:49;;;;;;;12.00;9.57;;;21.50;97.50;;;;;;4881622;29;20488;-78
2021/07/23 06:41:16;;;;;;;13.50;10.60;;;21.40;97.70;;;;;;4881182;29;20477;-78
2021/07/23 06:43:43;;;;;;;12.50;10.40;;;21.30;98.20;;;;;;4881619;29;20975;-78
2021/07/23 06:46:10;;;;;;;12.63;11.30;;;21.30;97.90;;;;;;4880996;29;20995;-77
2021/07/23 06:48:40;;;;;;;15.00;9.83;;;21.10;98.00;;;;;;4882618;29;20467;-77
2021/07/23 06:51:06;;;;;;;11.10;10.00;;;21.00;98.80;;;;;;4898213;29;20538;-79
2021/07/23 06:53:33;;;;;;;15.73;10.83;;;21.00;99.20;;;;;;4900342;29;20493;-79
2021/07/23 06:56:03;;;;;;;12.70;9.70;;;21.10;98.90;;;;;;4898456;29;20894;-77
2021/07/23 06:58:31;;;;;;;14.40;11.17;;;21.10;98.10;;;;;;4898498;29;20809;-76
2021/07/23 07:01:06;;;;;;;15.57;9.60;;;21.10;97.20;;;;;;4899067;28;20514;-77
2021/07/23 07:03:33;;;;;;;13.80;11.10;;;20.90;97.80;;;;;;4888936;29;20470;-77
2021/07/23 07:06:02;;;;;;;15.60;10.23;;;20.90;97.70;;;;;;4879784;29;20459;-77
2021/07/23 07:08:30;;;;;;;13.27;10.50;;;20.80;99.90;;;;;;4893462;29;20890;-77
2021/07/23 07:11:02;;;;;;;12.73;10.13;;;20.80;98.30;;;;;;4883520;28;20475;-77
2021/07/23 07:13:29;;;;;;;14.77;11.40;;;21.00;97.80;;;;;;4880252;29;20449;-79
2021/07/23 07:15:56;;;;;;;17.67;11.50;;;20.90;97.40;;;;;;4879415;29;20464;-79
2021/07/23 07:18:24;;;;;;;14.37;11.27;;;20.90;98.70;;;;;;4864747;29;20495;-79
2021/07/23 07:20:52;;;;;;;17.97;11.40;;;21.00;98.20;;;;;;4880310;29;20459;-77
2021/07/23 07:23:22;;;;;;;16.53;10.40;;;21.00;97.80;;;;;;4881121;29;20458;-78
2021/07/23 07:25:52;;;;;;;14.10;10.73;;;21.10;98.20;;;;;;4893854;29;20561;-76
2021/07/23 07:28:19;;;;;;;15.07;11.40;;;21.20;97.60;;;;;;4899246;29;20437;-79
2021/07/23 07:30:57;;;;;;;15.43;11.10;;;21.30;96.90;;;;;;4897743;29;20552;-79
2021/07/23 07:33:24;;;;;;;18.87;11.30;;;21.20;96.70;;;;;;4894661;29;20527;-78
2021/07/23 07:35:52;;;;;;;18.97;10.17;;;21.20;97.10;;;;;;4880835;29;20494;-79
2021/07/23 07:38:25;;;;;;;18.47;11.17;;;21.30;97.90;;;;;;4879337;29;20492;-77
2021/07/23 07:40:52;;;;;;;16.63;10.97;;;21.40;96.70;;;;;;4873433;29;20563;-78
2021/07/23 07:43:21;;;;;;;20.00;10.83;;;21.40;96.90;;;;;;4886886;29;20893;-79
2021/07/23 07:45:54;;;;;;;15.00;10.77;;;21.50;96.80;;;;;;4917130;29;20834;-78
2021/07/23 07:48:28;;;;;;;21.57;11.73;;;21.60;94.90;;;;;;4898118;29;20530;-79
2021/07/23 07:51:00;;;;;;;17.20;12.63;;;21.80;95.50;;;;;;4878925;29;20556;-79
2021/07/23 07:53:33;;;;;;;13.80;12.07;;;21.80;95.20;;;;;;4880594;29;20857;-77
2021/07/23 07:56:00;;;;;;;14.90;10.90;;;21.90;95.50;;;;;;4880365;29;20475;-79
2021/07/23 07:58:33;;;;;;;11.47;10.27;;;22.10;93.00;;;;;;4880734;29;20480;-78
2021/07/23 08:01:07;;;;;;;13.50;11.03;;;22.20;92.80;;;;;;4878866;29;21001;-77
2021/07/23 08:03:38;;;;;;;12.30;10.57;;;22.10;92.50;;;;;;4879776;29;20845;-79
2021/07/23 08:06:21;;;;;;;20.83;11.30;;;22.20;93.00;;;;;;4879138;29;20480;-79
2021/07/23 08:08:50;;;;;;;15.70;11.60;;;22.20;92.90;;;;;;4879640;29;20456;-79
2021/07/23 08:11:19;;;;;;;17.80;12.40;;;22.30;93.60;;;;;;4895914;29;20481;-79
2021/07/23 08:13:49;;;;;;;13.53;9.97;;;22.40;92.60;;;;;;4897617;29;20457;-81
2021/07/23 08:16:19;;;;;;;16.00;11.53;;;22.30;92.10;;;;;;4897774;29;20469;-79
2021/07/23 08:18:49;;;;;;;17.93;10.83;;;22.50;92.10;;;;;;4886477;29;20455;-80
2021/07/23 08:21:16;;;;;;;17.10;10.97;;;22.60;90.90;;;;;;4878540;29;20530;-81
2021/07/23 08:23:45;;;;;;;20.50;11.63;;;22.60;91.20;;;;;;4863932;29;20519;-81
2021/07/23 08:26:21;;;;;;;16.73;10.50;;;22.70;91.40;;;;;;4891939;29;21045;-81
2021/07/23 08:29:06;;;;;;;15.83;10.63;;;22.70;90.80;;;;;;4879692;29;20454;-80
2021/07/23 08:31:37;;;;;;;12.10;9.87;;;22.80;90.50;;;;;;4879986;29;20535;-81
2021/07/23 08:34:04;;;;;;;14.37;10.23;;;22.90;91.60;;;;;;4881501;29;21001;-81
2021/07/23 08:36:32;;;;;;;13.73;10.20;;;22.90;90.90;;;;;;4863105;29;20926;-81
2021/07/23 08:39:00;;;;;;;17.37;10.27;;;23.00;89.90;;;;;;4877803;29;20440;-81
2021/07/23 08:41:45;;;;;;;18.00;10.67;;;23.10;87.40;;;;;;4893717;29;20468;-81
2021/07/23 08:44:16;;;;;;;19.30;9.40;;;23.20;87.90;;;;;;4893180;29;20506;-82
2021/07/23 08:46:49;;;;;;;14.47;10.13;;;23.20;87.30;;;;;;4879051;29;20826;-81
2021/07/23 08:49:27;;;;;;;21.60;9.93;;;23.50;87.70;;;;;;4887292;29;20483;-80
2021/07/23 08:51:55;;;;;;;14.20;10.03;;;23.60;86.70;;;;;;4863011;29;20455;-81
2021/07/23 08:54:25;;;;;;;13.17;9.47;;;23.50;85.80;;;;;;4877763;29;20475;-80
2021/07/23 08:56:54;;;;;;;15.23;10.17;;;23.60;84.60;;;;;;4879521;29;20826;-80
2021/07/23 08:59:30;;;;;;;11.83;9.30;;;23.70;83.60;;;;;;4877466;29;20473;-80
2021/07/23 09:02:05;;;;;;;13.63;9.80;;;23.70;83.40;;;;;;4878700;29;20561;-81
2021/07/23 09:04:37;;;;;;;13.47;9.50;;;23.90;82.80;;;;;;4879506;29;20475;-81
2021/07/23 09:07:18;;;;;;;14.80;9.97;;;24.00;83.70;;;;;;4878167;29;20680;-81
2021/07/23 09:10:05;;;;;;;13.60;11.13;;;24.00;82.50;;;;;;4878680;29;20481;-80
2021/07/23 09:12:50;;;;;;;13.03;9.50;;;24.10;80.60;;;;;;4878155;29;20498;-82
2021/07/23 09:15:25;;;;;;;16.83;9.33;;;24.20;83.80;;;;;;4878252;29;20547;-81
2021/07/23 09:17:53;;;;;;;12.77;9.73;;;24.20;79.80;;;;;;4877738;29;20446;-80
2021/07/23 09:20:32;;;;;;;11.33;9.93;;;24.30;79.40;;;;;;4890402;29;20486;-81
2021/07/23 09:23:08;;;;;;;11.63;9.50;;;24.30;78.90;;;;;;4892703;29;20560;-79
2021/07/23 09:25:35;;;;;;;11.20;10.00;;;24.20;79.10;;;;;;4876524;29;20481;-80
2021/07/23 09:28:20;;;;;;;11.00;9.53;;;24.20;79.80;;;;;;4876956;29;21006;-80
2021/07/23 09:30:48;;;;;;;11.17;10.10;;;24.40;79.20;;;;;;4877314;29;20475;-80
2021/07/23 09:33:26;;;;;;;15.83;10.77;;;24.40;75.70;;;;;;4895543;29;20443;-80
2021/07/23 09:36:02;;;;;;;16.43;11.33;;;24.50;77.70;;;;;;4895870;29;20501;-80
2021/07/23 09:38:51;;;;;;;12.43;9.90;;;24.50;75.10;;;;;;4897104;29;20461;-80
2021/07/23 09:41:26;;;;;;;12.93;11.33;;;24.60;77.30;;;;;;4895630;29;20565;-80
2021/07/23 09:44:02;;;;;;;13.13;10.60;;;24.50;75.20;;;;;;4896043;29;20969;-79
2021/07/23 09:46:42;;;;;;;12.67;10.37;;;24.70;73.10;;;;;;4895493;29;20450;-80
2021/07/23 09:49:19;;;;;;;11.17;8.97;;;24.70;73.20;;;;;;4910533;29;20441;-80
2021/07/23 09:51:49;;;;;;;11.10;10.00;;;24.80;73.90;;;;;;4877206;29;20443;-80
2021/07/23 09:54:18;;;;;;;13.53;10.57;;;24.90;74.70;;;;;;4878339;29;20483;-80
2021/07/23 09:56:47;;;;;;;12.30;11.00;;;24.90;70.00;;;;;;4875463;29;20938;-80
2021/07/23 09:59:38;;;;;;;10.90;9.70;;;25.00;68.60;;;;;;4895644;29;20458;-80
2021/07/23 10:02:15;;;;;;;13.03;11.73;;;25.10;65.10;;;;;;4880730;29;20477;-81
2021/07/23 10:05:12;;;;;;;18.50;11.30;;;25.00;66.30;;;;;;4875148;29;20510;-80
2021/07/23 10:07:58;;;;;;;13.97;10.47;;;25.00;66.10;;;;;;4878429;29;20435;-81
2021/07/23 10:10:31;;;;;;;13.47;10.60;;;25.10;66.20;;;;;;4877871;29;20526;-80
2021/07/23 10:13:01;;;;;;;13.90;9.20;;;25.10;66.20;;;;;;4880637;29;20845;-80
2021/07/23 10:15:29;;;;;;;15.10;11.20;;;25.10;64.20;;;;;;4874981;29;20474;-80
2021/07/23 10:17:58;;;;;;;13.30;11.90;;;25.10;64.70;;;;;;4884905;29;20483;-80
2021/07/23 10:20:26;;;;;;;12.53;11.27;;;25.10;63.30;;;;;;4898641;29;20478;-81
2021/07/23 10:22:57;;;;;;;13.03;10.83;;;25.20;64.70;;;;;;4899521;29;20529;-81
2021/07/23 10:25:26;;;;;;;15.33;11.60;;;25.40;62.10;;;;;;4895036;29;20586;-81
2021/07/23 10:27:55;;;;;;;13.20;11.70;;;25.20;63.90;;;;;;4880606;29;20454;-80
2021/07/23 10:30:35;;;;;;;13.20;11.40;;;25.40;62.80;;;;;;4880418;29;20463;-80
2021/07/23 10:33:07;;;;;;;13.40;10.67;;;25.30;61.80;;;;;;4881773;29;20435;-80
2021/07/23 10:35:38;;;;;;;11.73;10.53;;;25.40;62.60;;;;;;4882060;29;20471;-80
2021/07/23 10:38:06;;;;;;;13.10;11.27;;;25.40;62.20;;;;;;4881700;29;20427;-80
2021/07/23 10:40:40;;;;;;;13.97;11.43;;;25.50;61.00;;;;;;4887613;29;20590;-80
2021/07/23 10:43:36;;;;;;;14.77;12.30;;;25.60;61.00;;;;;;4880725;29;20530;-80
2021/07/23 10:46:04;;;;;;;13.07;11.47;;;25.60;60.60;;;;;;4881610;29;20463;-80
2021/07/23 10:48:45;;;;;;;14.33;12.80;;;25.60;61.50;;;;;;4881222;29;20534;-81
2021/07/23 10:52:00;;;;;;;15.00;11.30;;;25.60;61.50;;;;;;4880126;29;20495;-81
2021/07/23 10:54:30;;;;;;;14.13;11.57;;;25.60;61.00;;;;;;4883239;29;20482;-80
2021/07/23 10:57:03;;;;;;;15.50;12.40;;;25.70;61.90;;;;;;4881826;29;20469;-80
2021/07/23 10:59:39;;;;;;;13.43;11.20;;;25.80;61.60;;;;;;4881477;29;20546;-80
2021/07/23 11:02:15;;;;;;;15.73;11.90;;;25.90;61.00;;;;;;4880510;29;20474;-81
2021/07/23 11:04:46;;;;;;;12.30;10.50;;;26.20;59.90;;;;;;4880320;29;20538;-81
2021/07/23 11:07:15;;;;;;;13.97;12.13;;;26.30;61.70;;;;;;4880559;29;20462;-80
2021/07/23 11:09:44;;;;;;;18.30;11.80;;;26.40;59.60;;;;;;4881323;29;20471;-80
2021/07/23 11:12:38;;;;;;;14.50;13.10;;;26.40;59.30;;;;;;4880151;29;20530;-80
2021/07/23 11:15:07;;;;;;;14.53;12.00;;;26.50;58.50;;;;;;4880090;29;20573;-80
2021/07/23 11:17:50;;;;;;;16.03;14.17;;;26.60;57.20;;;;;;4879565;29;20487;-80
2021/07/23 11:20:34;;;;;;;16.83;13.37;;;26.50;58.00;;;;;;4893933;29;20841;-80
2021/07/23 11:23:02;;;;;;;15.80;13.63;;;26.40;58.30;;;;;;4879179;29;20474;-80
2021/07/23 11:25:30;;;;;;;16.40;12.00;;;26.40;58.00;;;;;;4885896;29;21061;-80
2021/07/23 11:28:02;;;;;;;14.03;12.63;;;26.30;60.40;;;;;;4880708;29;20429;-80
2021/07/23 11:30:34;;;;;;;13.00;11.40;;;26.50;60.90;;;;;;4879193;29;20464;-80
2021/07/23 11:33:05;;;;;;;14.60;13.20;;;26.50;60.00;;;;;;4880494;29;20454;-80
2021/07/23 11:35:39;;;;;;;19.13;15.20;;;26.60;59.70;;;;;;4878878;29;20494;-80
2021/07/23 11:38:11;;;;;;;17.13;13.80;;;26.60;57.20;;;;;;4880472;29;20508;-79
2021/07/23 11:40:40;;;;;;;16.40;13.37;;;26.60;57.10;;;;;;4878580;29;20586;-80
2021/07/23 11:43:19;;;;;;;13.80;12.30;;;26.50;58.10;;;;;;4879080;29;20485;-79
2021/07/23 11:45:46;;;;;;;14.97;13.47;;;26.50;59.60;;;;;;4879908;29;20475;-80
2021/07/23 11:48:15;;;;;;;17.40;14.17;;;26.50;58.90;;;;;;4880103;29;20450;-80
2021/07/23 11:50:57;;;;;;;13.13;11.70;;;26.60;63.50;;;;;;4880386;29;20455;-80
2021/07/23 11:53:24;;;;;;;14.07;12.60;;;26.70;60.10;;;;;;4880364;29;20471;-80
2021/07/23 11:55:53;;;;;;;13.10;11.70;;;26.80;59.70;;;;;;4892519;29;20565;-79
2021/07/23 11:58:27;;;;;;;14.50;13.20;;;27.00;60.70;;;;;;4897214;29;20497;-79
2021/07/23 12:00:57;;;;;;;17.07;14.37;;;27.00;60.80;;;;;;4888718;29;20857;-81
2021/07/23 12:03:25;;;;;;;14.80;12.83;;;27.10;58.90;;;;;;4893441;29;20511;-80
2021/07/23 12:05:53;;;;;;;14.60;13.03;;;27.00;59.10;;;;;;4891644;29;20502;-80
2021/07/23 12:08:21;;;;;;;16.40;12.20;;;27.20;57.60;;;;;;4898315;29;20513;-80
2021/07/23 12:10:48;;;;;;;16.53;12.57;;;27.20;59.30;;;;;;4895311;29;20490;-79
2021/07/23 12:13:16;;;;;;;17.13;13.57;;;27.20;58.30;;;;;;4881396;29;21023;-80
2021/07/23 12:15:56;;;;;;;16.43;12.33;;;27.20;59.50;;;;;;4894684;29;20478;-81
2021/07/23 12:18:25;;;;;;;17.27;14.70;;;27.20;57.00;;;;;;4896535;29;20442;-80
2021/07/23 12:21:06;;;;;;;16.60;11.97;;;27.20;56.60;;;;;;4888561;29;20481;-80
2021/07/23 12:23:33;;;;;;;20.67;12.43;;;27.20;58.10;;;;;;4888853;29;20561;-80
2021/07/23 12:26:00;;;;;;;13.13;11.63;;;27.30;59.10;;;;;;4882890;29;20882;-80
2021/07/23 12:28:28;;;;;;;14.57;13.07;;;27.40;58.60;;;;;;4897836;29;20490;-81
2021/07/23 12:30:56;;;;;;;18.50;14.37;;;27.50;54.30;;;;;;4896543;29;20473;-80
2021/07/23 12:33:28;;;;;;;16.23;13.77;;;27.40;56.40;;;;;;4886870;29;20852;-79
2021/07/23 12:36:02;;;;;;;21.17;13.67;;;27.30;60.40;;;;;;4877348;29;21003;-81
2021/07/23 12:38:29;;;;;;;14.10;11.67;;;27.20;59.60;;;;;;4897022;29;20524;-80
2021/07/23 12:41:01;;;;;;;16.30;14.70;;;27.30;56.90;;;;;;4894437;28;20522;-80
2021/07/23 12:43:33;;;;;;;13.30;12.00;;;27.30;56.60;;;;;;4896091;29;20474;-81
2021/07/23 12:46:01;;;;;;;13.67;12.33;;;27.20;54.90;;;;;;4881589;29;20820;-80
2021/07/23 12:48:35;;;;;;;14.13;12.77;;;27.20;56.20;;;;;;4895955;29;20460;-80
2021/07/23 12:51:11;;;;;;;14.07;12.13;;;27.30;54.40;;;;;;4877288;29;20606;-81